sensor_id;sensor_type;location;lat;lon;timestamp;temperature;humidity
8485;DHT22;34555;49.34829940;8.43506100;2022-08-01T00:00:00;25.10;61.60
8485;DHT22;34555;49.34829940;8.43506100;2022-08-01T00:02:27;25.10;62.00
8485;DHT22;34555;49.34829940;8.43506100;2022-08-01T00:04:54;25.10;62.30
8485;DHT22;34555;49.34829940;8.43506100;2022-08-01T00:07:20;25.10;62.30
8485;DHT22;34555;49.34829940;8.43506100;2022-08-01T00:09:45;25.10;62.50
8485;DHT22;34555;49.34829940;8.43506100;2022-08-01T00:12:11;25.10;62.50
8485;DHT22;34555;49.34829940;8.43506100;2022-08-01T00:14:37;25.10;62.40
8485;DHT22;34555;49.34829940;8.43506100;2022-08-01T00:17:02;25.10;62.80
8485;DHT22;34555;49.34829940;8.43506100;2022-08-01T00:19:28;25.20;63.10
8485;DHT22;34555;49.34829940;8.43506100;2022-08-01T00:21:53;25.10;63.30
8485;DHT22;34555;49.34829940;8.43506100;2022-08-01T00:24:19;25.10;63.50
8485;DHT22;34555;49.34829940;8.43506100;2022-08-01T00:26:44;25.10;63.30
8485;DHT22;34555;49.34829940;8.43506100;2022-08-01T00:29:10;25.00;63.80
8485;DHT22;34555;49.34829940;8.43506100;2022-08-01T00:31:35;25.00;63.90
8485;DHT22;34555;49.34829940;8.43506100;2022-08-01T00:34:01;25.00;64.00
8485;DHT22;34555;49.34829940;8.43506100;2022-08-01T00:36:26;25.00;64.20
8485;DHT22;34555;49.34829940;8.43506100;2022-08-01T00:38:52;24.90;64.10
8485;DHT22;34555;49.34829940;8.43506100;2022-08-01T00:41:18;25.00;64.00
8485;DHT22;34555;49.34829940;8.43506100;2022-08-01T00:43:43;25.00;64.20
8485;DHT22;34555;49.34829940;8.43506100;2022-08-01T00:46:09;25.00;64.30
8485;DHT22;34555;49.34829940;8.43506100;2022-08-01T00:48:34;25.00;64.50
8485;DHT22;34555;49.34829940;8.43506100;2022-08-01T00:51:00;25.00;64.60
8485;DHT22;34555;49.34829940;8.43506100;2022-08-01T00:53:26;25.00;64.70
8485;DHT22;34555;49.34829940;8.43506100;2022-08-01T00:55:52;24.90;64.70
8485;DHT22;34555;49.34829940;8.43506100;2022-08-01T00:58:18;24.90;64.80
8485;DHT22;34555;49.34829940;8.43506100;2022-08-01T01:00:44;24.90;64.90
8485;DHT22;34555;49.34829940;8.43506100;2022-08-01T01:03:09;24.80;65.20
8485;DHT22;34555;49.34829940;8.43506100;2022-08-01T01:06:41;24.70;65.50
8485;DHT22;34555;49.34829940;8.43506100;2022-08-01T01:08:46;24.70;65.60
8485;DHT22;34555;49.34829940;8.43506100;2022-08-01T01:11:44;24.70;65.90
8485;DHT22;34555;49.34829940;8.43506100;2022-08-01T01:14:20;24.70;66.20
8485;DHT22;34555;49.34829940;8.43506100;2022-08-01T01:16:49;24.70;66.30
8485;DHT22;34555;49.34829940;8.43506100;2022-08-01T01:19:20;24.60;66.30
8485;DHT22;34555;49.34829940;8.43506100;2022-08-01T01:22:31;24.70;66.10
8485;DHT22;34555;49.34829940;8.43506100;2022-08-01T01:28:13;24.70;66.40
8485;DHT22;34555;49.34829940;8.43506100;2022-08-01T01:30:43;24.60;67.00
8485;DHT22;34555;49.34829940;8.43506100;2022-08-01T01:33:11;24.50;67.10
8485;DHT22;34555;49.34829940;8.43506100;2022-08-01T01:35:48;24.50;67.20
8485;DHT22;34555;49.34829940;8.43506100;2022-08-01T01:38:24;24.50;67.40
8485;DHT22;34555;49.34829940;8.43506100;2022-08-01T01:40:52;24.50;67.60
8485;DHT22;34555;49.34829940;8.43506100;2022-08-01T01:43:19;24.50;68.00
8485;DHT22;34555;49.34829940;8.43506100;2022-08-01T01:45:46;24.40;68.10
8485;DHT22;34555;49.34829940;8.43506100;2022-08-01T01:48:18;24.40;68.50
8485;DHT22;34555;49.34829940;8.43506100;2022-08-01T01:50:46;24.40;68.60
8485;DHT22;34555;49.34829940;8.43506100;2022-08-01T01:53:14;24.30;68.60
8485;DHT22;34555;49.34829940;8.43506100;2022-08-01T01:55:41;24.40;68.70
8485;DHT22;34555;49.34829940;8.43506100;2022-08-01T01:58:11;24.30;68.80
8485;DHT22;34555;49.34829940;8.43506100;2022-08-01T02:00:37;24.40;68.70
8485;DHT22;34555;49.34829940;8.43506100;2022-08-01T02:03:05;24.40;68.70
8485;DHT22;34555;49.34829940;8.43506100;2022-08-01T02:05:33;24.40;69.10
8485;DHT22;34555;49.34829940;8.43506100;2022-08-01T02:08:01;24.40;68.70
8485;DHT22;34555;49.34829940;8.43506100;2022-08-01T02:10:28;24.40;69.10
8485;DHT22;34555;49.34829940;8.43506100;2022-08-01T02:12:56;24.30;69.70
8485;DHT22;34555;49.34829940;8.43506100;2022-08-01T02:15:23;24.30;69.70
8485;DHT22;34555;49.34829940;8.43506100;2022-08-01T02:17:50;24.30;69.70
8485;DHT22;34555;49.34829940;8.43506100;2022-08-01T02:20:16;24.30;69.50
8485;DHT22;34555;49.34829940;8.43506100;2022-08-01T02:22:52;24.40;69.40
8485;DHT22;34555;49.34829940;8.43506100;2022-08-01T02:28:04;24.40;69.50
8485;DHT22;34555;49.34829940;8.43506100;2022-08-01T02:30:33;24.30;70.00
8485;DHT22;34555;49.34829940;8.43506100;2022-08-01T02:33:04;24.30;70.00
8485;DHT22;34555;49.34829940;8.43506100;2022-08-01T02:35:32;24.30;69.90
8485;DHT22;34555;49.34829940;8.43506100;2022-08-01T02:38:00;24.30;70.00
8485;DHT22;34555;49.34829940;8.43506100;2022-08-01T02:40:28;24.30;70.50
8485;DHT22;34555;49.34829940;8.43506100;2022-08-01T02:42:56;24.40;69.90
8485;DHT22;34555;49.34829940;8.43506100;2022-08-01T02:45:24;24.40;69.80
8485;DHT22;34555;49.34829940;8.43506100;2022-08-01T02:47:51;24.40;69.90
8485;DHT22;34555;49.34829940;8.43506100;2022-08-01T02:50:19;24.30;69.90
8485;DHT22;34555;49.34829940;8.43506100;2022-08-01T02:52:52;24.30;70.00
8485;DHT22;34555;49.34829940;8.43506100;2022-08-01T02:55:19;24.30;70.20
8485;DHT22;34555;49.34829940;8.43506100;2022-08-01T02:57:46;24.40;70.00
8485;DHT22;34555;49.34829940;8.43506100;2022-08-01T03:00:14;24.40;70.00
8485;DHT22;34555;49.34829940;8.43506100;2022-08-01T03:02:42;24.20;70.10
8485;DHT22;34555;49.34829940;8.43506100;2022-08-01T03:05:11;24.30;70.30
8485;DHT22;34555;49.34829940;8.43506100;2022-08-01T03:07:37;24.20;70.50
8485;DHT22;34555;49.34829940;8.43506100;2022-08-01T03:10:04;24.00;70.90
8485;DHT22;34555;49.34829940;8.43506100;2022-08-01T03:12:33;24.20;70.50
8485;DHT22;34555;49.34829940;8.43506100;2022-08-01T03:15:00;24.30;70.50
8485;DHT22;34555;49.34829940;8.43506100;2022-08-01T03:17:28;24.20;70.40
8485;DHT22;34555;49.34829940;8.43506100;2022-08-01T03:19:55;24.20;70.50
8485;DHT22;34555;49.34829940;8.43506100;2022-08-01T03:22:23;24.20;70.80
8485;DHT22;34555;49.34829940;8.43506100;2022-08-01T03:24:52;24.20;70.60
8485;DHT22;34555;49.34829940;8.43506100;2022-08-01T03:27:21;24.30;70.60
8485;DHT22;34555;49.34829940;8.43506100;2022-08-01T03:29:48;24.20;70.40
8485;DHT22;34555;49.34829940;8.43506100;2022-08-01T03:32:15;24.20;70.50
8485;DHT22;34555;49.34829940;8.43506100;2022-08-01T03:34:41;24.20;70.50
8485;DHT22;34555;49.34829940;8.43506100;2022-08-01T03:37:28;24.20;70.50
8485;DHT22;34555;49.34829940;8.43506100;2022-08-01T03:40:02;24.20;70.90
8485;DHT22;34555;49.34829940;8.43506100;2022-08-01T03:42:35;24.10;71.00
8485;DHT22;34555;49.34829940;8.43506100;2022-08-01T03:45:06;23.90;71.40
8485;DHT22;34555;49.34829940;8.43506100;2022-08-01T03:47:35;23.80;71.60
8485;DHT22;34555;49.34829940;8.43506100;2022-08-01T03:50:05;23.50;72.40
8485;DHT22;34555;49.34829940;8.43506100;2022-08-01T03:52:32;23.70;72.10
8485;DHT22;34555;49.34829940;8.43506100;2022-08-01T03:55:01;23.90;72.30
8485;DHT22;34555;49.34829940;8.43506100;2022-08-01T03:57:29;24.00;71.60
8485;DHT22;34555;49.34829940;8.43506100;2022-08-01T03:59:59;23.90;71.60
8485;DHT22;34555;49.34829940;8.43506100;2022-08-01T04:02:29;23.90;71.70
8485;DHT22;34555;49.34829940;8.43506100;2022-08-01T04:04:54;23.90;71.60
8485;DHT22;34555;49.34829940;8.43506100;2022-08-01T04:07:28;23.80;71.70
8485;DHT22;34555;49.34829940;8.43506100;2022-08-01T04:09:54;23.70;71.80
8485;DHT22;34555;49.34829940;8.43506100;2022-08-01T04:12:20;23.40;72.80
8485;DHT22;34555;49.34829940;8.43506100;2022-08-01T04:14:46;23.40;73.10
8485;DHT22;34555;49.34829940;8.43506100;2022-08-01T04:17:12;23.10;74.20
8485;DHT22;34555;49.34829940;8.43506100;2022-08-01T04:19:38;23.10;74.20
8485;DHT22;34555;49.34829940;8.43506100;2022-08-01T04:22:04;23.20;74.40
8485;DHT22;34555;49.34829940;8.43506100;2022-08-01T04:24:31;23.20;74.30
8485;DHT22;34555;49.34829940;8.43506100;2022-08-01T04:27:00;23.20;74.30
8485;DHT22;34555;49.34829940;8.43506100;2022-08-01T04:29:27;23.30;74.00
8485;DHT22;34555;49.34829940;8.43506100;2022-08-01T04:31:55;23.20;74.20
8485;DHT22;34555;49.34829940;8.43506100;2022-08-01T04:34:24;23.40;73.60
8485;DHT22;34555;49.34829940;8.43506100;2022-08-01T04:36:52;23.20;73.90
8485;DHT22;34555;49.34829940;8.43506100;2022-08-01T04:39:20;22.90;75.10
8485;DHT22;34555;49.34829940;8.43506100;2022-08-01T04:41:46;22.90;75.40
8485;DHT22;34555;49.34829940;8.43506100;2022-08-01T04:44:13;22.90;75.30
8485;DHT22;34555;49.34829940;8.43506100;2022-08-01T04:46:40;22.90;75.60
8485;DHT22;34555;49.34829940;8.43506100;2022-08-01T04:49:07;22.90;75.50
8485;DHT22;34555;49.34829940;8.43506100;2022-08-01T04:51:34;22.90;75.70
8485;DHT22;34555;49.34829940;8.43506100;2022-08-01T04:54:00;22.80;76.30
8485;DHT22;34555;49.34829940;8.43506100;2022-08-01T04:56:26;22.90;76.00
8485;DHT22;34555;49.34829940;8.43506100;2022-08-01T04:58:52;22.70;76.60
8485;DHT22;34555;49.34829940;8.43506100;2022-08-01T05:01:37;22.90;76.70
8485;DHT22;34555;49.34829940;8.43506100;2022-08-01T05:04:03;23.20;75.60
8485;DHT22;34555;49.34829940;8.43506100;2022-08-01T05:06:28;23.50;75.00
8485;DHT22;34555;49.34829940;8.43506100;2022-08-01T05:08:54;23.60;74.70
8485;DHT22;34555;49.34829940;8.43506100;2022-08-01T05:11:20;23.60;74.70
8485;DHT22;34555;49.34829940;8.43506100;2022-08-01T05:13:47;23.60;74.70
8485;DHT22;34555;49.34829940;8.43506100;2022-08-01T05:16:13;23.70;74.80
8485;DHT22;34555;49.34829940;8.43506100;2022-08-01T05:18:38;23.70;74.80
8485;DHT22;34555;49.34829940;8.43506100;2022-08-01T05:21:04;23.70;74.80
8485;DHT22;34555;49.34829940;8.43506100;2022-08-01T05:23:29;23.70;74.80
8485;DHT22;34555;49.34829940;8.43506100;2022-08-01T05:25:55;23.70;75.20
8485;DHT22;34555;49.34829940;8.43506100;2022-08-01T05:28:20;23.70;74.80
8485;DHT22;34555;49.34829940;8.43506100;2022-08-01T05:30:46;23.70;75.10
8485;DHT22;34555;49.34829940;8.43506100;2022-08-01T05:33:11;23.50;75.40
8485;DHT22;34555;49.34829940;8.43506100;2022-08-01T05:35:37;23.40;75.60
8485;DHT22;34555;49.34829940;8.43506100;2022-08-01T05:38:02;23.60;75.20
8485;DHT22;34555;49.34829940;8.43506100;2022-08-01T05:40:28;23.50;75.40
8485;DHT22;34555;49.34829940;8.43506100;2022-08-01T05:42:53;23.30;76.00
8485;DHT22;34555;49.34829940;8.43506100;2022-08-01T05:45:19;23.20;76.80
8485;DHT22;34555;49.34829940;8.43506100;2022-08-01T05:47:44;23.40;76.40
8485;DHT22;34555;49.34829940;8.43506100;2022-08-01T05:50:10;23.50;76.40
8485;DHT22;34555;49.34829940;8.43506100;2022-08-01T05:52:35;23.60;75.80
8485;DHT22;34555;49.34829940;8.43506100;2022-08-01T05:55:02;23.70;75.50
8485;DHT22;34555;49.34829940;8.43506100;2022-08-01T05:57:27;23.60;75.60
8485;DHT22;34555;49.34829940;8.43506100;2022-08-01T05:59:53;23.70;75.50
8485;DHT22;34555;49.34829940;8.43506100;2022-08-01T06:02:18;23.90;74.90
8485;DHT22;34555;49.34829940;8.43506100;2022-08-01T06:04:44;23.80;75.00
8485;DHT22;34555;49.34829940;8.43506100;2022-08-01T06:07:10;23.90;74.90
8485;DHT22;34555;49.34829940;8.43506100;2022-08-01T06:09:35;23.90;74.80
8485;DHT22;34555;49.34829940;8.43506100;2022-08-01T06:12:01;23.90;74.70
8485;DHT22;34555;49.34829940;8.43506100;2022-08-01T06:14:26;24.00;74.40
8485;DHT22;34555;49.34829940;8.43506100;2022-08-01T06:16:52;24.20;74.00
8485;DHT22;34555;49.34829940;8.43506100;2022-08-01T06:19:17;24.20;73.80
8485;DHT22;34555;49.34829940;8.43506100;2022-08-01T06:21:43;24.30;73.70
8485;DHT22;34555;49.34829940;8.43506100;2022-08-01T06:24:08;24.30;73.40
8485;DHT22;34555;49.34829940;8.43506100;2022-08-01T06:26:34;24.40;73.40
8485;DHT22;34555;49.34829940;8.43506100;2022-08-01T06:29:00;24.40;73.10
8485;DHT22;34555;49.34829940;8.43506100;2022-08-01T06:31:26;24.30;73.20
8485;DHT22;34555;49.34829940;8.43506100;2022-08-01T06:33:51;24.20;73.20
8485;DHT22;34555;49.34829940;8.43506100;2022-08-01T06:36:17;24.30;73.10
8485;DHT22;34555;49.34829940;8.43506100;2022-08-01T06:38:42;24.40;73.00
8485;DHT22;34555;49.34829940;8.43506100;2022-08-01T06:41:08;24.40;73.20
8485;DHT22;34555;49.34829940;8.43506100;2022-08-01T06:43:33;24.30;73.40
8485;DHT22;34555;49.34829940;8.43506100;2022-08-01T06:45:59;24.30;73.70
8485;DHT22;34555;49.34829940;8.43506100;2022-08-01T06:48:24;24.20;73.80
8485;DHT22;34555;49.34829940;8.43506100;2022-08-01T06:50:50;24.10;74.00
8485;DHT22;34555;49.34829940;8.43506100;2022-08-01T06:53:33;24.20;73.60
8485;DHT22;34555;49.34829940;8.43506100;2022-08-01T06:55:59;24.30;73.70
8485;DHT22;34555;49.34829940;8.43506100;2022-08-01T06:58:24;24.30;73.60
8485;DHT22;34555;49.34829940;8.43506100;2022-08-01T07:00:50;24.30;73.70
8485;DHT22;34555;49.34829940;8.43506100;2022-08-01T07:03:15;24.40;73.30
8485;DHT22;34555;49.34829940;8.43506100;2022-08-01T07:05:41;24.50;73.00
8485;DHT22;34555;49.34829940;8.43506100;2022-08-01T07:08:06;24.60;73.00
8485;DHT22;34555;49.34829940;8.43506100;2022-08-01T07:10:32;24.60;72.80
8485;DHT22;34555;49.34829940;8.43506100;2022-08-01T07:12:57;24.60;72.50
8485;DHT22;34555;49.34829940;8.43506100;2022-08-01T07:15:23;24.70;72.40
8485;DHT22;34555;49.34829940;8.43506100;2022-08-01T07:17:51;24.70;72.40
8485;DHT22;34555;49.34829940;8.43506100;2022-08-01T07:20:17;24.70;72.40
8485;DHT22;34555;49.34829940;8.43506100;2022-08-01T07:22:43;24.80;72.30
8485;DHT22;34555;49.34829940;8.43506100;2022-08-01T07:25:08;24.80;72.10
8485;DHT22;34555;49.34829940;8.43506100;2022-08-01T07:27:35;24.90;72.20
8485;DHT22;34555;49.34829940;8.43506100;2022-08-01T07:30:01;24.90;72.80
8485;DHT22;34555;49.34829940;8.43506100;2022-08-01T07:32:27;24.90;72.20
8485;DHT22;34555;49.34829940;8.43506100;2022-08-01T07:34:54;24.90;72.80
8485;DHT22;34555;49.34829940;8.43506100;2022-08-01T07:37:20;25.00;72.20
8485;DHT22;34555;49.34829940;8.43506100;2022-08-01T07:39:45;25.00;71.60
8485;DHT22;34555;49.34829940;8.43506100;2022-08-01T07:42:11;25.00;71.40
8485;DHT22;34555;49.34829940;8.43506100;2022-08-01T07:44:36;25.00;71.30
8485;DHT22;34555;49.34829940;8.43506100;2022-08-01T07:47:03;25.00;71.20
8485;DHT22;34555;49.34829940;8.43506100;2022-08-01T07:49:29;25.00;71.50
8485;DHT22;34555;49.34829940;8.43506100;2022-08-01T07:51:54;25.00;71.40
8485;DHT22;34555;49.34829940;8.43506100;2022-08-01T07:54:20;25.00;71.50
8485;DHT22;34555;49.34829940;8.43506100;2022-08-01T07:56:45;25.10;71.40
8485;DHT22;34555;49.34829940;8.43506100;2022-08-01T07:59:11;25.00;71.10
8485;DHT22;34555;49.34829940;8.43506100;2022-08-01T08:01:36;25.00;71.00
8485;DHT22;34555;49.34829940;8.43506100;2022-08-01T08:04:02;25.00;70.70
8485;DHT22;34555;49.34829940;8.43506100;2022-08-01T08:06:27;25.00;70.60
8485;DHT22;34555;49.34829940;8.43506100;2022-08-01T08:08:53;25.00;70.50
8485;DHT22;34555;49.34829940;8.43506100;2022-08-01T08:11:19;25.00;70.50
8485;DHT22;34555;49.34829940;8.43506100;2022-08-01T08:13:44;25.00;70.50
8485;DHT22;34555;49.34829940;8.43506100;2022-08-01T08:16:10;25.00;70.30
8485;DHT22;34555;49.34829940;8.43506100;2022-08-01T08:18:35;25.00;70.30
8485;DHT22;34555;49.34829940;8.43506100;2022-08-01T08:21:02;25.00;70.20
8485;DHT22;34555;49.34829940;8.43506100;2022-08-01T08:23:27;25.00;70.10
8485;DHT22;34555;49.34829940;8.43506100;2022-08-01T08:26:12;25.00;70.10
8485;DHT22;34555;49.34829940;8.43506100;2022-08-01T08:28:37;25.10;70.00
8485;DHT22;34555;49.34829940;8.43506100;2022-08-01T08:31:03;25.10;70.00
8485;DHT22;34555;49.34829940;8.43506100;2022-08-01T08:33:28;25.10;69.90
8485;DHT22;34555;49.34829940;8.43506100;2022-08-01T08:35:54;25.00;69.70
8485;DHT22;34555;49.34829940;8.43506100;2022-08-01T08:38:20;25.10;69.70
8485;DHT22;34555;49.34829940;8.43506100;2022-08-01T08:40:46;25.10;69.80
8485;DHT22;34555;49.34829940;8.43506100;2022-08-01T08:43:11;25.10;69.50
8485;DHT22;34555;49.34829940;8.43506100;2022-08-01T08:45:37;25.10;69.40
8485;DHT22;34555;49.34829940;8.43506100;2022-08-01T08:48:05;25.10;69.30
8485;DHT22;34555;49.34829940;8.43506100;2022-08-01T08:50:30;25.10;69.30
8485;DHT22;34555;49.34829940;8.43506100;2022-08-01T08:52:59;25.20;69.50
8485;DHT22;34555;49.34829940;8.43506100;2022-08-01T08:55:26;25.20;70.10
8485;DHT22;34555;49.34829940;8.43506100;2022-08-01T08:57:53;25.20;69.40
8485;DHT22;34555;49.34829940;8.43506100;2022-08-01T09:00:19;25.10;69.30
8485;DHT22;34555;49.34829940;8.43506100;2022-08-01T09:02:46;25.10;69.30
8485;DHT22;34555;49.34829940;8.43506100;2022-08-01T09:05:12;25.20;69.40
8485;DHT22;34555;49.34829940;8.43506100;2022-08-01T09:07:38;25.10;69.30
8485;DHT22;34555;49.34829940;8.43506100;2022-08-01T09:10:05;25.20;69.40
8485;DHT22;34555;49.34829940;8.43506100;2022-08-01T09:12:31;25.20;69.30
8485;DHT22;34555;49.34829940;8.43506100;2022-08-01T09:14:58;25.20;69.20
8485;DHT22;34555;49.34829940;8.43506100;2022-08-01T09:17:24;25.20;69.00
8485;DHT22;34555;49.34829940;8.43506100;2022-08-01T09:19:52;25.20;69.10
8485;DHT22;34555;49.34829940;8.43506100;2022-08-01T09:22:20;25.20;69.00
8485;DHT22;34555;49.34829940;8.43506100;2022-08-01T09:25:01;25.30;69.10
8485;DHT22;34555;49.34829940;8.43506100;2022-08-01T09:27:28;25.20;68.90
8485;DHT22;34555;49.34829940;8.43506100;2022-08-01T09:29:54;25.20;68.90
8485;DHT22;34555;49.34829940;8.43506100;2022-08-01T09:32:20;25.20;68.90
8485;DHT22;34555;49.34829940;8.43506100;2022-08-01T09:34:46;25.30;68.90
8485;DHT22;34555;49.34829940;8.43506100;2022-08-01T09:37:12;25.30;68.80
8485;DHT22;34555;49.34829940;8.43506100;2022-08-01T09:39:39;25.30;68.80
8485;DHT22;34555;49.34829940;8.43506100;2022-08-01T09:42:25;25.30;68.70
8485;DHT22;34555;49.34829940;8.43506100;2022-08-01T09:44:52;25.30;68.70
8485;DHT22;34555;49.34829940;8.43506100;2022-08-01T09:47:19;25.30;68.60
8485;DHT22;34555;49.34829940;8.43506100;2022-08-01T09:49:56;25.30;68.60
8485;DHT22;34555;49.34829940;8.43506100;2022-08-01T09:52:24;25.30;68.60
8485;DHT22;34555;49.34829940;8.43506100;2022-08-01T09:55:02;25.30;68.50
8485;DHT22;34555;49.34829940;8.43506100;2022-08-01T09:57:28;25.30;68.50
8485;DHT22;34555;49.34829940;8.43506100;2022-08-01T09:59:56;25.30;68.50
8485;DHT22;34555;49.34829940;8.43506100;2022-08-01T10:02:33;25.40;68.50
8485;DHT22;34555;49.34829940;8.43506100;2022-08-01T10:05:00;25.30;68.50
8485;DHT22;34555;49.34829940;8.43506100;2022-08-01T10:07:26;25.30;68.50
8485;DHT22;34555;49.34829940;8.43506100;2022-08-01T10:09:52;25.30;68.50
8485;DHT22;34555;49.34829940;8.43506100;2022-08-01T10:12:21;25.30;68.50
8485;DHT22;34555;49.34829940;8.43506100;2022-08-01T10:14:48;25.30;68.50
8485;DHT22;34555;49.34829940;8.43506100;2022-08-01T10:17:20;25.40;68.50
8485;DHT22;34555;49.34829940;8.43506100;2022-08-01T10:19:47;25.30;68.40
8485;DHT22;34555;49.34829940;8.43506100;2022-08-01T10:22:14;25.40;68.50
8485;DHT22;34555;49.34829940;8.43506100;2022-08-01T10:24:46;25.40;68.40
8485;DHT22;34555;49.34829940;8.43506100;2022-08-01T10:27:14;25.40;68.40
8485;DHT22;34555;49.34829940;8.43506100;2022-08-01T10:32:07;25.40;68.30
8485;DHT22;34555;49.34829940;8.43506100;2022-08-01T10:34:35;25.40;68.30
8485;DHT22;34555;49.34829940;8.43506100;2022-08-01T10:37:01;25.50;68.40
8485;DHT22;34555;49.34829940;8.43506100;2022-08-01T10:39:28;25.40;68.30
8485;DHT22;34555;49.34829940;8.43506100;2022-08-01T10:41:55;25.50;68.30
8485;DHT22;34555;49.34829940;8.43506100;2022-08-01T10:44:22;25.50;68.30
8485;DHT22;34555;49.34829940;8.43506100;2022-08-01T10:46:50;25.50;68.30
8485;DHT22;34555;49.34829940;8.43506100;2022-08-01T10:49:20;25.40;68.10
8485;DHT22;34555;49.34829940;8.43506100;2022-08-01T10:51:47;25.40;68.20
8485;DHT22;34555;49.34829940;8.43506100;2022-08-01T10:54:13;25.50;68.30
8485;DHT22;34555;49.34829940;8.43506100;2022-08-01T10:56:43;25.70;68.40
8485;DHT22;34555;49.34829940;8.43506100;2022-08-01T10:59:09;25.60;68.30
8485;DHT22;34555;49.34829940;8.43506100;2022-08-01T11:01:39;25.60;68.50
8485;DHT22;34555;49.34829940;8.43506100;2022-08-01T11:04:13;25.60;69.00
8485;DHT22;34555;49.34829940;8.43506100;2022-08-01T11:06:52;25.80;67.90
8485;DHT22;34555;49.34829940;8.43506100;2022-08-01T11:09:28;25.70;67.70
8485;DHT22;34555;49.34829940;8.43506100;2022-08-01T11:11:59;25.80;67.90
8485;DHT22;34555;49.34829940;8.43506100;2022-08-01T11:14:27;25.90;67.90
8485;DHT22;34555;49.34829940;8.43506100;2022-08-01T11:16:53;25.90;67.90
8485;DHT22;34555;49.34829940;8.43506100;2022-08-01T11:19:19;26.00;67.70
8485;DHT22;34555;49.34829940;8.43506100;2022-08-01T11:29:40;26.50;66.80
8485;DHT22;34555;49.34829940;8.43506100;2022-08-01T11:32:26;26.50;66.50
8485;DHT22;34555;49.34829940;8.43506100;2022-08-01T11:34:52;26.40;66.60
8485;DHT22;34555;49.34829940;8.43506100;2022-08-01T11:37:28;26.40;66.60
8485;DHT22;34555;49.34829940;8.43506100;2022-08-01T11:40:18;26.40;66.50
8485;DHT22;34555;49.34829940;8.43506100;2022-08-01T11:42:44;26.40;66.60
8485;DHT22;34555;49.34829940;8.43506100;2022-08-01T11:45:09;26.40;66.60
8485;DHT22;34555;49.34829940;8.43506100;2022-08-01T11:47:53;26.40;66.80
8485;DHT22;34555;49.34829940;8.43506100;2022-08-01T11:50:45;26.50;67.80
8485;DHT22;34555;49.34829940;8.43506100;2022-08-01T11:53:10;26.60;69.20
8485;DHT22;34555;49.34829940;8.43506100;2022-08-01T11:55:47;26.70;70.60
8485;DHT22;34555;49.34829940;8.43506100;2022-08-01T11:58:15;26.70;70.70
8485;DHT22;34555;49.34829940;8.43506100;2022-08-01T12:00:41;26.70;71.40
8485;DHT22;34555;49.34829940;8.43506100;2022-08-01T12:03:08;26.80;70.80
8485;DHT22;34555;49.34829940;8.43506100;2022-08-01T12:05:36;26.80;70.60
8485;DHT22;34555;49.34829940;8.43506100;2022-08-01T12:08:03;26.80;71.10
8485;DHT22;34555;49.34829940;8.43506100;2022-08-01T12:10:33;26.80;70.60
8485;DHT22;34555;49.34829940;8.43506100;2022-08-01T12:13:03;26.70;70.60
8485;DHT22;34555;49.34829940;8.43506100;2022-08-01T12:15:36;26.70;70.60
8485;DHT22;34555;49.34829940;8.43506100;2022-08-01T12:18:04;26.70;70.10
8485;DHT22;34555;49.34829940;8.43506100;2022-08-01T12:20:36;26.70;69.40
8485;DHT22;34555;49.34829940;8.43506100;2022-08-01T12:23:04;26.70;69.10
8485;DHT22;34555;49.34829940;8.43506100;2022-08-01T12:25:31;26.70;68.50
8485;DHT22;34555;49.34829940;8.43506100;2022-08-01T12:28:02;26.60;68.00
8485;DHT22;34555;49.34829940;8.43506100;2022-08-01T12:30:28;26.70;67.90
8485;DHT22;34555;49.34829940;8.43506100;2022-08-01T12:32:56;26.80;67.60
8485;DHT22;34555;49.34829940;8.43506100;2022-08-01T12:35:27;26.90;67.00
8485;DHT22;34555;49.34829940;8.43506100;2022-08-01T12:38:01;26.90;66.80
8485;DHT22;34555;49.34829940;8.43506100;2022-08-01T12:40:30;26.80;66.90
8485;DHT22;34555;49.34829940;8.43506100;2022-08-01T12:42:59;26.90;66.80
8485;DHT22;34555;49.34829940;8.43506100;2022-08-01T12:45:27;26.80;66.80
8485;DHT22;34555;49.34829940;8.43506100;2022-08-01T12:47:55;26.80;67.00
8485;DHT22;34555;49.34829940;8.43506100;2022-08-01T12:50:24;26.80;67.00
8485;DHT22;34555;49.34829940;8.43506100;2022-08-01T12:52:51;26.80;67.00
8485;DHT22;34555;49.34829940;8.43506100;2022-08-01T12:55:18;26.70;66.90
8485;DHT22;34555;49.34829940;8.43506100;2022-08-01T12:57:45;26.70;66.80
8485;DHT22;34555;49.34829940;8.43506100;2022-08-01T13:00:19;26.70;66.70
8485;DHT22;34555;49.34829940;8.43506100;2022-08-01T13:02:47;26.70;66.60
8485;DHT22;34555;49.34829940;8.43506100;2022-08-01T13:05:14;26.80;66.50
8485;DHT22;34555;49.34829940;8.43506100;2022-08-01T13:07:42;26.80;66.20
8485;DHT22;34555;49.34829940;8.43506100;2022-08-01T13:10:09;26.80;66.20
8485;DHT22;34555;49.34829940;8.43506100;2022-08-01T13:12:36;26.70;66.40
8485;DHT22;34555;49.34829940;8.43506100;2022-08-01T13:15:19;26.70;66.40
8485;DHT22;34555;49.34829940;8.43506100;2022-08-01T13:17:45;26.70;66.40
8485;DHT22;34555;49.34829940;8.43506100;2022-08-01T13:20:21;26.70;66.40
8485;DHT22;34555;49.34829940;8.43506100;2022-08-01T13:22:47;26.80;66.10
8485;DHT22;34555;49.34829940;8.43506100;2022-08-01T13:25:14;26.80;66.00
8485;DHT22;34555;49.34829940;8.43506100;2022-08-01T13:27:40;26.80;66.00
8485;DHT22;34555;49.34829940;8.43506100;2022-08-01T13:30:16;26.90;65.90
8485;DHT22;34555;49.34829940;8.43506100;2022-08-01T13:32:44;26.90;65.80
8485;DHT22;34555;49.34829940;8.43506100;2022-08-01T13:35:11;26.90;65.60
8485;DHT22;34555;49.34829940;8.43506100;2022-08-01T13:37:39;26.90;65.50
8485;DHT22;34555;49.34829940;8.43506100;2022-08-01T13:40:09;26.90;65.50
8485;DHT22;34555;49.34829940;8.43506100;2022-08-01T13:42:35;26.90;65.60
8485;DHT22;34555;49.34829940;8.43506100;2022-08-01T13:45:05;26.90;65.60
8485;DHT22;34555;49.34829940;8.43506100;2022-08-01T13:47:33;26.90;65.70
8485;DHT22;34555;49.34829940;8.43506100;2022-08-01T13:50:00;26.90;65.70
8485;DHT22;34555;49.34829940;8.43506100;2022-08-01T13:52:28;27.00;65.50
8485;DHT22;34555;49.34829940;8.43506100;2022-08-01T13:54:53;27.00;65.50